Date,TemperatureHighF,TemperatureAvgF,TemperatureLowF,DewpointHighF,DewpointAvgF,DewpointLowF,HumidityHigh,HumidityAvg,HumidityLow,PressureMaxIn,PressureMinIn,WindSpeedMaxMPH,WindSpeedAvgMPH,GustSpeedMaxMPH,PrecipitationSumIn
2013-1-1,49,48,43,48,41,30,97,81,49,30.12,29.96,20,2,20,0.46
2013-1-2,54,48,45,46,44,40,98,85,61,30.16,29.91,10,1,11,0.08
2013-1-3,46,40,28,43,38,26,96,91,85,30.30,30.11,8,1,8,0.00
2013-1-4,53,36,24,33,24,18,96,66,29,30.37,30.25,18,2,18,0.01
2013-1-5,48,36,21,35,26,19,95,68,39,30.41,30.25,14,2,14,0.00
2013-1-6,57,46,38,44,37,30,87,73,57,30.25,30.04,16,2,16,0.00
2013-1-7,54,38,25,34,29,24,94,73,40,30.44,30.22,9,1,9,0.00
2013-1-8,52,37,23,41,32,21,96,83,59,30.49,30.38,5,0,5,0.00
2013-1-9,60,50,45,52,46,39,94,83,74,30.46,30.38,5,0,5,0.00
2013-1-10,67,55,40,55,49,39,98,82,63,30.52,30.36,9,1,9,0.00
2013-1-11,55,50,48,50,49,47,98,96,76,30.37,30.16,9,1,9,0.50
2013-1-12,72,60,50,66,57,49,99,92,71,30.18,30.08,12,1,12,0.00
2013-1-13,70,58,48,63,55,48,99,93,79,30.12,30.04,20,2,20,0.00
2013-1-14,67,62,53,65,61,52,98,96,92,30.11,30.02,17,2,17,0.16
2013-1-15,54,50,44,53,49,44,98,97,95,30.16,30.06,9,1,9,0.84
2013-1-16,51,47,44,50,46,43,98,97,94,30.07,29.98,7,0,7,0.32
2013-1-17,52,47,36,52,46,34,99,97,93,30.21,29.77,30,3,30,2.24
2013-1-18,53,37,28,38,31,27,98,82,41,30.53,30.20,8,1,8,0.01
2013-1-19,55,38,23,36,29,22,97,74,34,30.52,30.19,16,2,18,0.00
2013-1-20,65,45,29,40,33,27,95,68,34,30.19,30.04,10,2,12,0.00
2013-1-21,63,43,27,39,27,17,96,60,29,30.09,29.94,21,2,21,0.00
2013-1-22,42,33,23,24,11,3,79,42,20,30.28,30.04,20,4,20,0.00
2013-1-23,50,32,20,29,21,16,91,67,35,30.37,30.10,14,1,14,0.00
2013-1-24,48,36,25,32,17,2,94,53,16,30.51,30.02,27,4,27,0.00
2013-1-25,29,26,20,26,19,12,94,77,54,30.53,30.14,15,2,15,0.00
2013-1-26,54,36,22,36,28,20,97,78,31,30.37,30.13,12,1,12,0.03
2013-1-27,46,35,24,34,28,23,96,79,56,30.59,30.37,9,0,9,0.00
2013-1-28,56,45,38,46,39,33,88,79,69,30.49,30.26,18,3,21,0.00
2013-1-29,69,54,35,60,49,34,98,86,70,30.26,30.01,19,2,19,0.00
2013-1-30,70,63,48,63,60,45,97,88,79,30.02,29.43,29,8,30,1.48
2013-1-31,51,42,30,45,29,20,89,62,32,30.05,29.55,23,4,23,0.00
2013-2-1,40,34,22,33,16,6,82,50,26,30.38,29.95,27,5,27,0.00
2013-2-2,44,32,19,35,22,12,94,72,29,30.41,30.07,24,4,24,0.00
2013-2-3,55,40,26,36,29,22,95,67,31,30.06,29.88,23,3,23,0.00
2013-2-4,51,39,25,31,26,21,87,61,36,30.16,30.01,17,3,17,0.00
2013-2-5,66,47,32,43,33,28,90,61,28,30.01,29.89,15,2,16,0.00
2013-2-6,66,46,29,38,31,27,95,65,25,30.22,29.99,17,2,17,0.00
2013-2-7,47,42,35,41,36,28,96,82,53,30.26,30.02,19,3,19,0.70
2013-2-8,60,48,37,50,38,28,97,74,36,30.13,29.90,21,3,21,0.00
2013-2-9,60,40,24,34,27,22,95,67,24,30.35,30.11,10,1,10,0.02
2013-2-10,55,43,32,43,34,27,95,74,35,30.44,30.18,11,1,11,0.21
2013-2-11,59,51,44,56,50,42,98,94,90,30.19,29.96,22,2,22,0.10
2013-2-12,59,50,41,44,35,23,96,59,29,30.11,29.89,11,1,11,0.06
2013-2-13,52,45,40,47,42,32,96,88,65,29.93,29.66,20,2,20,0.02
2013-2-14,54,41,26,36,32,25,96,74,47,30.08,29.89,17,2,17,0.01
2013-2-15,64,44,25,40,32,23,97,68,33,30.12,29.93,20,2,20,0.00
2013-2-16,44,37,30,34,26,-100,93,67,43,30.06,29.85,22,3,22,0.05
2013-2-17,44,33,25,19,12,8,77,43,24,30.29,30.05,29,4,29,0.00
2013-2-18,56,36,19,29,22,16,92,63,30,30.40,30.21,18,2,18,0.00
2013-2-19,54,42,29,44,34,17,95,74,30,30.22,29.88,24,4,24,0.19
2013-2-20,55,43,28,24,13,-2,75,32,12,30.12,30.03,26,4,26,0.00
2013-2-21,59,41,23,41,24,16,94,59,20,30.25,30.09,13,1,13,0.13
2013-2-22,41,40,38,39,38,37,96,95,88,30.30,30.13,8,1,8,0.37
2013-2-23,46,41,38,44,40,37,97,95,91,30.16,29.86,6,1,6,0.28
2013-2-24,65,48,33,44,35,25,98,68,25,30.02,29.87,16,2,17,0.01
2013-2-25,47,39,30,31,29,27,93,69,48,30.19,30.01,12,2,12,0.00
2013-2-26,42,37,33,41,35,29,98,95,74,30.10,29.62,15,4,15,2.09
2013-2-27,57,47,31,41,38,30,97,71,50,29.83,29.66,20,4,20,0.01
2013-2-28,51,40,30,35,29,25,95,67,43,29.92,29.74,17,3,17,0.00
2013-3-1,48,38,25,33,28,23,95,70,48,29.96,29.89,15,2,15,0.00
2013-3-2,48,40,31,37,30,21,95,70,42,29.96,29.84,18,2,18,0.05
2013-3-3,43,33,24,23,18,15,88,56,32,30.04,29.94,14,2,14,0.00
2013-3-4,56,41,25,30,19,13,73,44,20,30.17,30.04,12,1,12,0.00
2013-3-5,51,44,36,46,39,30,96,85,68,30.08,29.66,20,2,20,0.57
2013-3-6,44,38,30,37,27,22,84,63,48,30.13,29.68,32,6,34,0.00
2013-3-7,57,39,23,33,26,21,95,66,27,30.28,30.13,12,2,12,0.00
2013-3-8,61,40,22,30,25,20,95,63,24,30.35,30.21,12,1,12,0.00
2013-3-9,63,43,24,37,29,22,93,65,27,30.38,30.24,9,1,9,0.00
2013-3-10,67,48,32,41,36,30,95,67,32,30.31,30.16,17,1,17,0.00
2013-3-11,66,50,38,54,45,35,97,83,60,30.19,29.84,18,1,18,0.70
2013-3-12,63,55,47,56,41,25,98,65,25,30.00,29.74,23,4,23,0.82
2013-3-13,57,46,30,37,26,19,93,49,29,30.19,30.00,21,4,22,0.00
2013-3-14,55,40,25,27,19,10,85,46,18,30.32,30.18,21,2,21,0.00
2013-3-15,71,52,31,43,32,15,78,50,31,30.21,29.89,25,4,25,0.00
2013-3-16,79,66,57,51,46,42,63,48,33,29.91,29.70,27,6,27,0.00
2013-3-17,77,62,46,51,46,41,87,60,35,30.06,29.82,19,3,20,0.00
2013-3-18,48,42,40,41,40,38,96,91,77,30.12,29.89,13,2,13,0.54
2013-3-19,65,51,40,43,31,18,98,55,20,30.08,29.86,27,4,27,0.01
2013-3-20,58,49,40,31,18,9,70,32,19,30.11,29.80,21,3,21,0.00
2013-3-21,45,38,28,31,16,10,69,42,29,29.98,29.83,22,6,22,0.00
2013-3-22,52,40,23,28,22,16,89,51,31,30.11,29.97,19,4,19,0.00
2013-3-23,58,46,40,45,37,26,93,73,47,30.05,29.89,9,1,9,0.02
2013-3-24,45,43,40,44,42,38,96,94,92,29.94,29.57,16,2,17,0.87
2013-3-25,47,41,35,39,29,20,97,65,38,29.94,29.57,31,5,31,0.04
2013-3-26,49,40,33,30,25,22,70,55,40,30.21,29.92,24,5,24,0.00
2013-3-27,55,42,34,29,25,20,74,51,28,30.28,30.18,19,3,19,0.00
2013-3-28,59,43,24,30,23,14,92,52,19,30.33,30.20,22,3,22,0.00
2013-3-29,62,45,25,42,30,23,92,60,26,30.36,30.20,16,2,16,0.00
2013-3-30,66,53,44,48,44,41,96,75,42,30.24,30.04,13,2,14,0.07
2013-3-31,70,56,48,58,52,44,97,88,58,30.06,29.82,18,2,24,0.29
2013-4-1,73,60,46,55,45,37,96,63,32,29.97,29.83,21,2,21,0.00
2013-4-2,67,55,41,40,33,25,77,46,27,30.14,29.97,12,2,12,0.00
2013-4-3,61,52,42,41,29,19,76,42,26,30.26,30.11,12,1,12,0.00
2013-4-4,48,41,37,41,35,27,95,80,45,30.26,30.00,18,3,18,0.77
2013-4-5,67,49,34,47,40,33,98,76,31,30.06,29.92,12,1,13,0.00
2013-4-6,70,52,32,47,38,30,97,66,29,30.22,30.06,15,1,15,0.00
2013-4-7,72,54,36,50,43,34,97,70,38,30.24,30.09,23,3,23,0.00
2013-4-8,78,61,45,60,51,43,97,73,43,30.15,30.03,22,3,22,0.00
2013-4-9,82,65,46,61,54,45,97,70,41,30.18,30.07,19,3,19,0.00
2013-4-10,84,67,49,63,56,48,97,71,41,30.08,29.92,20,3,20,0.00
2013-4-11,80,70,55,66,61,52,94,75,53,29.94,29.68,20,4,20,0.03
2013-4-12,80,69,58,66,54,38,96,65,26,29.81,29.62,28,5,28,0.72
2013-4-13,78,60,42,48,41,33,92,55,20,30.01,29.80,17,2,17,0.00
2013-4-14,72,58,40,54,46,38,97,68,36,30.09,29.97,12,2,12,0.02
2013-4-15,69,60,55,61,57,53,97,89,74,30.19,29.97,10,1,10,0.29
2013-4-16,79,66,59,64,59,56,94,78,52,30.27,30.15,14,2,15,0.00
2013-4-17,79,64,55,67,60,54,98,88,59,30.23,30.10,17,1,17,0.04
2013-4-18,80,67,56,64,61,55,99,83,53,30.14,29.94,15,2,15,0.01
2013-4-19,70,64,51,67,61,39,94,89,63,29.94,29.72,22,5,25,0.54
2013-4-20,66,52,38,41,35,25,92,56,22,30.27,29.91,15,2,15,0.12
2013-4-21,64,51,36,46,39,33,96,67,35,30.43,30.27,17,2,17,0.01
2013-4-22,64,52,40,44,40,35,94,67,37,30.42,30.21,17,2,17,0.00
2013-4-23,72,54,37,54,44,35,95,73,39,30.28,30.09,14,1,14,0.00
2013-4-24,73,63,45,60,55,44,95,77,57,30.13,29.99,28,4,28,0.00
2013-4-25,74,59,44,58,43,29,94,60,24,30.28,30.05,12,1,12,0.00
2013-4-26,71,55,37,52,40,34,94,64,30,30.43,30.28,14,1,14,0.00
2013-4-27,60,55,53,56,52,48,97,89,76,30.35,30.25,6,0,6,0.73
2013-4-28,54,53,52,53,52,50,98,97,96,30.26,30.05,9,1,9,1.22
2013-4-29,73,61,53,63,57,53,98,88,62,30.07,29.91,15,1,15,0.61
2013-4-30,75,62,48,65,57,47,99,86,61,30.17,29.97,13,1,13,0.02
2013-5-1,67,61,55,59,56,53,97,84,70,30.26,30.16,19,1,19,0.00
2013-5-2,61,58,55,58,56,54,96,93,88,30.29,30.21,11,1,11,0.11
2013-5-3,64,59,56,58,55,52,96,86,73,30.22,30.08,16,2,16,0.02
2013-5-4,60,54,51,53,49,45,95,83,73,30.10,29.97,17,2,17,0.33
2013-5-5,54,51,48,53,50,47,98,96,95,30.00,29.83,15,3,15,3.18
2013-5-6,66,58,49,56,52,47,98,82,55,29.90,29.81,17,2,17,0.02
2013-5-7,71,56,43,56,50,42,98,83,47,29.95,29.85,13,1,13,0.00
2013-5-8,74,62,49,62,56,48,98,80,59,30.01,29.91,10,1,10,0.01
2013-5-9,80,64,49,66,56,48,98,78,44,30.07,29.99,14,1,14,0.00
2013-5-10,80,66,51,66,59,50,99,80,53,30.07,29.93,21,2,21,0.01
2013-5-11,77,68,59,67,62,57,97,83,65,29.94,29.77,18,2,18,0.17
2013-5-12,72,60,44,60,46,33,97,64,28,30.04,29.84,17,3,17,0.00
2013-5-13,69,53,36,45,36,28,97,58,24,30.19,30.04,21,3,21,0.00
2013-5-14,73,56,37,54,44,35,97,68,40,30.26,30.06,20,3,21,0.00
2013-5-15,87,71,52,67,59,50,95,70,44,30.07,29.91,16,2,16,0.00
2013-5-16,80,68,54,66,60,53,98,78,47,30.01,29.93,13,1,13,0.00
2013-5-17,84,70,54,68,61,53,99,77,49,30.07,29.98,14,1,14,0.00
2013-5-18,72,66,61,69,64,60,97,94,85,30.11,30.02,8,0,8,1.94
2013-5-19,76,69,64,70,67,62,98,92,77,30.09,29.97,10,1,10,0.33
2013-5-20,82,70,61,72,66,61,99,89,64,30.10,29.98,10,1,10,0.00
2013-5-21,88,73,60,73,66,59,99,82,53,30.02,29.89,12,1,12,0.00
2013-5-22,83,70,61,75,66,60,98,88,67,29.98,29.82,22,2,22,2.24
2013-5-23,78,68,63,70,66,60,98,92,73,29.94,29.81,11,1,11,0.26
2013-5-24,73,64,49,62,51,41,96,66,37,30.20,29.88,16,2,28,0.00
2013-5-25,77,59,40,56,46,38,98,67,32,30.30,30.13,15,2,15,0.00
2013-5-26,75,62,51,58,53,48,94,76,48,30.28,30.15,13,1,13,0.02
2013-5-27,82,66,50,67,57,49,98,76,45,30.26,30.11,12,1,12,0.00
2013-5-28,82,70,56,67,62,55,99,79,53,30.20,30.11,15,2,15,0.00
2013-5-29,83,71,58,68,63,57,99,79,50,30.21,30.12,14,2,14,0.00
2013-5-30,83,70,57,69,63,56,99,80,51,30.25,30.14,9,1,10,0.00
2013-5-31,84,72,60,70,65,59,99,81,53,30.20,30.07,15,2,15,0.00
2013-6-1,84,73,65,70,66,64,97,81,57,30.10,29.98,16,2,16,0.00
2013-6-2,78,71,66,72,68,64,98,90,80,30.01,29.88,15,2,15,0.25
2013-6-3,81,72,65,73,68,64,99,89,70,29.93,29.82,13,1,13,0.00
2013-6-4,83,73,65,71,67,64,98,83,57,30.04,29.92,10,1,12,0.08
2013-6-5,80,72,68,72,68,65,97,87,74,30.07,29.93,14,1,15,0.93
2013-6-6,76,70,67,72,69,66,98,94,84,29.96,29.77,10,1,10,0.16
2013-6-7,84,71,67,73,68,64,98,91,62,29.81,29.64,16,1,17,0.35
2013-6-8,83,73,64,73,68,64,99,85,62,30.06,29.81,12,1,12,0.00
2013-6-9,83,71,64,74,68,63,99,92,68,30.11,30.00,21,1,21,0.87
2013-6-10,78,72,69,72,69,66,97,92,77,30.03,29.87,17,4,17,0.72
2013-6-11,88,77,66,73,68,64,98,78,47,29.97,29.90,15,2,15,0.00
2013-6-12,89,76,62,78,71,61,99,86,60,29.99,29.87,14,1,14,0.00
2013-6-13,91,78,67,76,70,64,99,77,50,29.87,29.65,19,3,19,0.01
2013-6-14,83,73,58,65,59,55,94,65,42,30.01,29.75,19,2,19,0.00
2013-6-15,83,70,54,68,61,54,98,77,51,30.12,30.01,14,1,14,0.00
2013-6-16,85,73,60,71,65,59,98,80,54,30.11,29.98,17,2,17,0.00
2013-6-17,82,73,67,74,70,66,97,89,71,30.01,29.91,24,2,27,2.65
2013-6-18,83,73,67,75,70,66,98,91,74,29.94,29.76,17,3,17,0.06
2013-6-19,82,77,65,71,67,64,95,74,59,30.08,29.97,10,1,10,0.00
2013-6-20,82,72,64,71,67,63,98,84,60,30.19,30.08,11,1,11,0.00
2013-6-21,85,73,62,70,65,62,99,80,53,30.25,30.13,8,1,8,0.00
2013-6-22,86,72,60,71,65,59,99,80,52,30.21,30.08,10,1,10,0.00
2013-6-23,86,73,62,76,68,61,99,86,61,30.19,30.07,21,1,21,1.29
2013-6-24,86,76,67,78,71,66,99,87,64,30.18,30.05,11,1,12,0.01
2013-6-25,87,76,67,77,71,66,99,85,60,30.11,29.97,12,1,12,0.04
2013-6-26,87,74,66,78,71,66,99,89,64,30.01,29.85,19,1,19,0.24
2013-6-27,88,77,69,79,72,66,98,87,70,29.91,29.70,13,2,17,0.34
2013-6-28,93,79,68,79,72,66,99,81,44,29.76,29.56,12,1,12,0.01
2013-6-29,86,76,65,73,69,64,98,80,57,29.67,29.58,14,1,14,0.00
2013-6-30,84,75,70,74,70,68,95,85,61,29.79,29.65,14,1,15,0.00
2013-7-1,82,74,68,73,70,67,97,87,71,29.94,29.77,14,2,14,1.09
2013-7-2,74,72,68,72,71,67,99,96,94,30.01,29.92,9,0,9,0.34
2013-7-3,74,73,65,72,71,64,98,94,93,30.19,30.01,7,0,8,0.71
2013-7-4,84,71,66,77,69,65,99,95,77,30.21,30.10,21,1,21,2.09
2013-7-5,85,73,69,76,71,68,99,93,67,30.21,30.13,9,1,20,0.67
2013-7-6,85,75,70,76,72,69,99,93,68,30.19,30.06,19,1,19,0.75
2013-7-7,83,76,72,76,73,70,98,90,75,30.14,30.03,14,2,14,0.03
2013-7-8,86,77,71,78,73,70,98,87,65,30.15,30.06,12,1,15,0.09
2013-7-9,89,77,68,78,72,67,99,86,60,30.13,30.01,19,1,19,0.55
2013-7-10,85,76,70,78,73,70,99,91,71,30.09,29.91,12,1,12,0.05
2013-7-11,80,75,70,76,73,70,99,94,83,29.93,29.83,6,0,6,0.01
2013-7-12,84,73,65,75,70,62,98,90,68,29.98,29.85,19,1,21,0.49
2013-7-13,79,71,63,74,69,62,98,93,81,30.09,29.98,22,1,22,1.27
2013-7-14,78,73,69,75,71,69,98,96,87,30.25,30.07,21,1,21,1.44
2013-7-15,86,76,68,76,72,68,100,88,64,30.30,30.21,10,1,11,0.00
2013-7-16,92,80,69,79,73,68,99,81,52,30.28,30.17,7,0,7,0.00
2013-7-17,92,79,69,82,73,69,99,85,59,30.22,30.09,15,1,15,0.01
2013-7-18,79,79,79,73,73,73,82,82,82,30.10,30.10,1,1,0,0.01
2013-7-19,89,81,68,78,74,68,99,81,61,30.10,29.94,12,2,12,0.01
2013-7-20,86,75,70,79,73,69,99,94,74,30.00,29.91,17,1,21,1.10
2013-7-21,85,75,71,79,72,70,99,93,73,29.98,29.91,8,1,13,0.37
2013-7-22,84,76,69,77,72,68,99,90,73,29.98,29.80,13,2,13,0.10
2013-7-23,75,70,68,72,69,67,98,96,92,29.84,29.79,7,1,8,0.00
2013-7-24,90,78,66,78,71,66,99,83,58,29.81,29.72,8,1,8,0.00
2013-7-25,85,74,66,74,69,65,99,86,64,30.00,29.81,16,1,16,0.44
2013-7-26,84,74,66,75,70,65,99,89,68,30.07,29.97,9,1,10,0.00
2013-7-27,84,74,70,76,71,68,99,93,75,29.99,29.85,18,1,18,1.22
2013-7-28,86,75,69,74,70,68,99,88,64,29.97,29.88,14,1,14,0.00
2013-7-29,86,74,63,75,68,62,99,85,57,30.13,29.97,7,0,7,0.00
2013-7-30,84,74,64,75,69,62,97,86,63,30.20,30.09,7,0,8,0.00
2013-7-31,78,73,69,73,70,68,98,93,78,30.13,29.94,7,1,7,0.04
2013-8-1,83,75,69,76,72,68,99,91,70,29.96,29.85,12,1,18,1.06
2013-8-2,87,76,66,77,71,66,99,85,58,30.00,29.89,7,1,8,0.01
2013-8-3,86,77,69,78,72,68,99,86,62,29.99,29.91,8,1,8,0.00
2013-8-4,87,77,67,75,70,66,98,81,55,29.99,29.90,16,1,18,0.00
2013-8-5,84,74,65,74,69,64,98,85,67,30.05,29.93,11,1,11,0.00
2013-8-6,82,74,69,76,71,68,98,92,76,30.02,29.93,12,1,12,0.58
2013-8-7,78,74,71,75,72,70,98,95,87,30.05,29.98,10,1,11,0.40
2013-8-8,84,76,71,76,73,70,99,91,75,30.03,29.96,14,2,14,0.00
2013-8-9,88,77,70,79,74,70,100,91,68,30.04,29.97,16,2,16,0.02
2013-8-10,88,76,70,79,73,69,100,91,65,30.08,30.01,29,7,29,2.25
2013-8-11,88,74,67,79,72,66,100,93,66,30.10,30.02,10,1,14,0.09
2013-8-12,88,76,68,80,73,68,100,90,64,30.04,29.92,13,1,13,0.03
2013-8-13,88,76,69,78,73,68,100,91,66,29.93,29.76,14,1,14,0.26
2013-8-14,80,72,67,72,69,66,100,89,64,30.04,29.84,9,0,10,0.00
2013-8-15,72,67,63,67,63,59,98,86,66,30.13,30.03,13,1,13,0.00
2013-8-16,74,66,62,66,62,60,97,88,70,30.15,30.06,12,1,12,0.00
2013-8-17,69,65,62,64,63,60,98,92,81,30.17,30.11,12,1,12,0.11
2013-8-18,75,69,64,71,67,64,99,94,83,30.20,30.11,4,0,4,0.13
2013-8-19,77,70,67,72,68,66,99,95,79,30.17,30.06,6,0,6,1.13
2013-8-20,81,72,66,74,69,66,100,92,74,30.17,30.08,7,0,7,0.00
2013-8-21,80,72,68,75,71,68,100,95,82,30.20,30.08,6,0,6,0.17
2013-8-22,87,75,65,76,71,65,100,87,61,30.13,29.99,11,1,11,0.01
2013-8-23,89,73,64,76,69,64,100,89,56,30.03,29.92,20,1,20,0.70
2013-8-24,81,71,62,68,65,61,100,84,53,30.26,30.03,10,1,10,0.00
2013-8-25,80,68,57,69,62,57,100,84,56,30.37,30.25,9,0,9,0.01
2013-8-26,84,70,56,72,64,56,100,84,56,30.30,30.09,8,1,8,0.01
2013-8-27,88,73,59,78,68,58,100,86,57,30.12,29.97,7,0,7,0.00
2013-8-28,88,76,66,77,71,65,100,86,63,30.00,29.89,9,1,9,0.00
2013-8-29,93,78,67,80,72,66,100,85,53,29.94,29.84,7,0,7,0.01
2013-8-30,85,76,72,76,72,71,98,88,68,30.01,29.90,7,0,8,0.00
2013-8-31,86,73,67,77,71,67,100,93,72,29.93,29.85,9,1,17,0.04
2013-9-1,88,74,67,78,72,67,100,91,67,29.89,29.76,17,2,18,0.01
2013-9-2,88,75,66,78,71,65,100,89,64,29.87,29.78,8,1,8,0.01
2013-9-3,88,75,67,72,69,65,99,83,52,29.94,29.78,6,1,12,0.05
2013-9-4,86,72,62,73,67,61,100,85,57,30.07,29.94,6,1,7,0.01
2013-9-5,88,72,62,74,67,62,100,86,50,30.09,30.01,7,0,7,0.01
2013-9-6,83,70,60,69,64,60,100,83,54,30.17,30.06,6,1,9,0.00
2013-9-9,87,77,63,77,71,63,100,82,60,30.11,30.02,8,1,8,0.01
2013-9-10,88,74,62,76,69,62,100,85,53,30.21,30.10,7,0,8,0.00
2013-9-11,88,74,62,76,69,62,100,86,58,30.18,30.05,6,1,9,0.01
2013-9-12,89,74,66,76,70,66,100,90,59,30.05,29.81,12,0,12,0.03
2013-9-13,84,72,58,69,62,55,98,73,42,29.88,29.76,17,2,17,0.00
2013-9-14,78,64,53,63,56,52,97,78,50,30.10,29.88,13,1,14,0.00
2013-9-15,80,66,55,69,61,54,99,87,65,30.19,30.08,9,1,9,0.00
2013-9-16,87,71,60,70,64,58,100,81,40,30.12,30.02,11,1,11,0.01
2013-9-17,72,67,63,65,60,57,92,78,64,30.27,30.12,11,1,11,0.00
2013-9-18,72,66,59,63,60,56,95,82,67,30.27,30.14,9,1,9,0.00
2013-9-19,81,69,59,70,64,58,99,86,64,30.16,30.05,9,1,10,0.00
2013-9-20,85,72,60,71,66,60,100,84,56,30.06,29.88,11,1,12,0.00
2013-9-21,72,66,61,71,65,60,100,98,95,29.90,29.66,11,1,11,1.17
2013-9-22,78,65,54,65,60,53,100,85,54,29.88,29.71,9,1,9,0.01
2013-9-23,76,64,57,65,60,56,99,87,60,30.03,29.88,9,1,9,0.00
2013-9-24,76,66,55,66,62,54,100,88,64,30.06,29.91,8,1,8,0.01
2013-9-25,66,64,62,64,62,61,99,97,90,29.91,29.84,7,0,7,0.78
2013-9-26,76,64,57,64,60,56,100,88,59,30.02,29.86,12,1,12,0.00
2013-9-27,77,63,53,63,58,53,100,84,55,30.15,30.01,14,1,14,0.02
2013-9-28,72,62,53,62,58,53,100,87,62,30.23,30.13,8,0,8,0.00
2013-9-29,74,63,54,63,58,53,98,85,60,30.16,30.01,7,1,8,0.00
2013-9-30,76,64,53,66,59,53,100,87,60,30.08,29.97,6,0,6,0.00
2013-10-1,80,64,51,66,59,51,100,85,50,30.13,30.01,12,1,13,0.00
2013-10-2,83,66,53,70,61,53,100,85,51,30.14,30.04,7,0,9,0.01
2013-10-3,82,68,56,68,62,56,100,85,53,30.11,30.02,12,1,13,0.00
2013-10-4,84,68,55,72,63,55,100,87,56,30.12,30.04,6,0,8,0.01
2013-10-5,86,70,57,72,64,56,99,85,53,30.11,29.99,6,0,7,0.00
2013-10-6,82,68,56,70,63,56,100,88,59,30.02,29.85,10,1,13,0.01
2013-10-7,74,66,53,69,63,52,99,91,71,29.98,29.77,9,1,12,1.10
2013-10-8,70,60,53,57,53,50,99,80,57,30.19,29.97,13,2,16,0.00
2013-10-9,73,58,49,56,50,46,97,77,46,30.22,30.08,11,1,15,0.00
2013-10-10,79,59,43,62,53,42,99,83,48,30.12,29.96,8,1,9,0.01
2013-10-11,81,64,50,64,57,49,99,82,50,29.99,29.89,10,0,10,0.00
2013-10-12,76,63,51,65,59,51,100,89,60,30.07,29.95,5,0,7,0.00
2013-10-13,75,67,63,67,64,63,99,91,73,30.18,30.07,7,0,9,0.01
2013-10-14,70,65,59,65,63,58,97,92,79,30.21,30.11,11,1,13,0.01
2013-10-15,69,60,54,61,58,53,99,91,72,30.18,30.03,6,1,8,0.01
2013-10-16,72,60,49,63,57,48,100,89,67,30.06,29.94,7,1,13,0.00
2013-10-17,69,63,59,65,62,59,99,96,85,29.95,29.83,11,2,14,0.06
2013-10-18,71,59,48,62,55,47,100,89,65,30.01,29.87,6,1,10,0.01
2013-10-19,64,59,47,61,57,45,99,95,80,29.95,29.82,7,1,11,0.01
2013-10-20,66,51,38,52,44,36,95,81,50,30.08,29.91,7,0,8,0.00
2013-10-21,68,52,38,56,47,36,95,85,58,30.15,29.99,6,0,9,0.00
2013-10-22,69,58,50,59,53,48,94,86,62,30.00,29.78,4,0,7,0.02
2013-10-23,66,51,42,52,40,30,94,71,38,30.03,29.73,8,1,13,0.00
2013-10-24,60,45,32,48,37,31,97,78,49,30.16,30.03,11,1,12,0.00
2013-10-25,54,42,31,37,32,28,98,73,39,30.38,30.16,12,1,12,0.00
2013-10-26,58,41,24,40,33,22,98,75,45,30.38,30.07,17,2,17,0.01
2013-10-27,70,52,37,54,46,36,98,81,53,30.12,30.02,15,2,15,0.00
2013-10-28,70,56,46,60,52,45,99,90,59,30.22,30.08,11,1,11,0.01
2013-10-29,73,58,45,59,52,44,99,85,50,30.31,30.20,8,0,8,0.00
2013-10-30,78,62,51,62,56,50,99,84,52,30.25,30.11,13,1,14,0.00
2013-10-31,68,60,51,64,57,50,99,92,74,30.14,29.85,9,1,9,0.01
2013-11-1,71,65,56,64,62,54,97,89,77,29.85,29.61,21,4,21,0.13
2013-11-2,68,54,42,54,45,38,99,73,40,29.98,29.69,18,2,18,0.01
2013-11-3,64,47,33,45,38,31,94,75,39,30.36,29.98,10,0,10,0.00
2013-11-4,59,45,34,41,36,32,98,76,40,30.51,30.35,11,1,11,0.00
2013-11-5,60,45,32,48,39,31,98,83,51,30.55,30.40,11,1,11,0.01
2013-11-6,68,55,46,57,51,46,98,88,66,30.41,30.10,9,1,9,0.00
2013-11-7,71,53,40,61,44,31,94,74,29,30.12,29.96,13,0,14,0.01
2013-11-8,61,44,28,36,29,24,92,63,26,30.31,30.12,11,0,11,0.00
2013-11-9,58,43,26,40,32,24,98,68,36,30.37,30.18,14,2,15,0.00
2013-11-10,72,56,38,42,36,31,94,54,25,30.20,30.09,17,2,20,0.00
2013-11-11,62,45,30,38,32,28,94,67,29,30.33,30.12,8,1,8,0.00
2013-11-12,63,43,29,43,31,16,97,67,35,30.44,30.05,25,4,25,0.00
2013-11-13,52,32,17,27,20,14,93,65,26,30.54,30.43,9,1,9,0.00
2013-11-14,59,36,19,30,23,17,95,68,22,30.48,30.31,16,2,16,0.00
2013-11-15,55,41,26,46,34,23,97,78,44,30.33,30.18,6,0,6,0.26
2013-11-16,61,53,46,56,51,46,99,94,82,30.25,30.16,7,0,7,0.00
2013-11-17,61,57,54,59,56,53,99,95,89,30.18,29.85,6,0,6,0.34
2013-11-18,74,62,51,62,47,31,100,63,32,29.96,29.79,22,3,22,0.00
2013-11-19,58,46,33,37,31,23,91,60,26,30.23,29.95,13,1,16,0.00
2013-11-20,53,41,30,36,33,29,96,74,44,30.43,30.23,12,1,12,0.00
2013-11-21,50,47,44,48,41,33,97,79,65,30.46,30.35,10,2,10,0.08
2013-11-22,63,55,49,58,54,48,99,94,85,30.37,30.07,11,1,11,0.04
2013-11-23,61,52,38,55,43,22,95,74,44,30.19,30.03,10,0,10,0.00
2013-11-24,44,33,23,24,17,5,88,55,22,30.51,30.18,7,1,12,0.00
2013-11-25,40,31,18,23,16,9,91,58,30,30.55,30.31,8,0,8,0.00
2013-11-26,45,38,32,43,35,18,100,91,47,30.31,29.61,8,1,8,4.14
2013-11-27,45,38,27,44,31,18,95,78,55,30.18,29.52,17,2,17,0.19
2013-11-28,47,31,18,28,22,15,95,73,39,30.46,30.18,9,0,9,0.00
2013-11-29,56,35,22,33,26,20,97,75,31,30.57,30.44,9,0,9,0.00
2013-11-30,48,33,25,31,26,24,96,79,43,30.62,30.35,11,1,11,0.00
2013-12-1,58,38,25,39,31,24,96,80,46,30.35,30.00,14,1,14,0.00
2013-12-2,60,42,27,43,35,25,100,78,46,30.00,29.58,9,0,11,0.00
2013-12-3,59,51,44,52,47,42,93,87,73,29.58,29.41,6,0,10,0.09
2013-12-4,58,55,52,56,53,50,95,94,92,29.43,29.32,3,0,5,0.03
2013-12-5,68,62,56,65,60,55,95,94,92,29.33,29.13,13,1,13,0.32
2013-12-6,72,68,61,66,64,59,92,88,76,29.13,28.84,15,2,15,0.47
2013-12-7,61,54,47,59,49,39,93,82,68,29.07,28.81,11,1,13,0.03
2013-12-8,47,39,35,40,36,33,94,91,75,29.04,28.79,9,1,9,0.13
2013-12-9,46,40,35,44,38,33,95,94,93,28.81,28.42,7,0,7,0.77
2013-12-10,52,43,27,50,36,20,95,78,47,28.59,28.23,14,1,14,0.19
2013-12-11,52,34,21,34,27,20,96,78,40,28.71,28.52,15,1,15,0.91
2013-12-12,49,37,26,28,18,-1,96,52,14,28.61,28.48,22,2,23,0.01
2013-12-13,52,35,21,34,25,19,95,72,33,28.52,28.37,15,1,15,0.00
2013-12-14,41,39,36,40,37,32,97,91,72,28.38,27.92,14,1,15,1.08
2013-12-15,49,42,28,41,34,25,98,76,52,28.19,27.85,26,4,26,0.00
2013-12-16,60,42,26,39,32,24,97,71,38,28.23,28.13,13,2,14,0.00
2013-12-17,64,46,27,40,33,26,97,66,36,28.19,27.97,21,3,22,0.00
2013-12-18,54,41,28,31,21,5,89,50,17,28.27,28.11,20,3,20,0.00
2013-12-19,63,40,23,34,27,21,96,68,21,28.32,28.16,21,2,23,0.00
2013-12-20,61,46,31,48,39,29,97,79,55,28.17,28.02,17,2,17,0.00
2013-12-21,60,52,44,59,51,42,99,96,88,28.03,27.66,5,0,5,0.06
2013-12-22,69,63,56,66,62,56,100,97,88,27.66,27.44,18,2,18,1.19
2013-12-23,60,55,41,60,52,38,100,89,68,27.50,27.30,14,2,14,0.61
2013-12-24,44,36,24,40,27,16,98,74,41,27.69,27.34,24,2,24,0.00
2013-12-25,42,27,17,24,18,11,93,72,32,27.79,27.60,8,0,8,0.00
2013-12-26,56,33,20,35,25,19,95,78,36,27.64,27.48,7,0,8,0.00
2013-12-27,54,34,22,35,25,21,98,76,33,27.57,27.28,7,0,8,0.01
2013-12-28,49,36,21,40,31,19,97,86,56,27.35,26.92,6,0,6,0.23
2013-12-29,59,45,38,52,43,37,98,93,77,26.74,26.68,11,2,15,0.91
2013-12-30,54,43,34,45,39,33,99,85,66,26.91,26.72,9,1,9,0.00
2013-12-31,50,39,28,38,27,13,92,68,26,26.97,26.75,21,2,21,0.00
2014-1-1,48,35,26,34,29,23,94,79,49,26.94,26.62,9,0,9,0.00
2014-1-2,46,39,28,44,35,14,95,86,57,26.64,26.17,17,1,17,0.03